Terminal Aerodrome Forecast
Issued by NWS Northern Indiana

Home | Current Version | Previous Version | Graphics & Text | Print | Product List | Glossary On
Versions: 1 2 3 4 5 6 7 8 9 10 11 12 13 14 15 16
685
FTUS43 KIWX 222323
TAFFWA
TAF
KFWA 222323Z 2300/2324 20016KT P6SM SCT040 BKN080
     FM230500 21012KT P6SM BKN040
     FM230800 22012KT 5SM -SHRA VCTS BKN025CB
      TEMPO 2308/2311 3SM -TSRA BKN015CB
     FM231100 23012KT 5SM -TSRA OVC025CB
     FM231500 24012KT P6SM OVC015=

USA.gov is the U.S. government's official web portal to all federal, state and local government web resources and services.